createdAt,value
2023-06-17T00:00:57.493Z,95840.38
2023-06-17T00:01:59.130Z,95836.75
2023-06-17T00:03:00.854Z,95837.91
2023-06-17T00:04:04.013Z,95834.44
2023-06-17T00:05:06.616Z,95843.13
2023-06-17T00:06:08.334Z,95834.34
2023-06-17T00:07:09.986Z,95842.00
2023-06-17T00:08:11.625Z,95839.09
2023-06-17T00:09:14.622Z,95830.25
2023-06-17T00:10:16.363Z,95831.53
2023-06-17T00:11:18.000Z,95831.84
2023-06-17T00:12:19.646Z,95828.16
2023-06-17T00:13:22.236Z,95836.06
2023-06-17T00:14:24.672Z,95831.78
2023-06-17T00:15:26.282Z,95829.34
2023-06-17T00:16:28.062Z,95822.78
2023-06-17T00:17:33.522Z,95823.66
2023-06-17T00:18:35.249Z,95820.56
2023-06-17T00:19:38.590Z,95815.97
2023-06-17T00:20:40.271Z,95813.38
2023-06-17T00:21:42.299Z,95818.00
2023-06-17T00:22:48.057Z,95818.66
2023-06-17T00:23:49.766Z,95815.97
2023-06-17T00:24:51.501Z,95817.84
2023-06-17T00:25:53.346Z,95819.63
2023-06-17T00:26:54.997Z,95816.50
2023-06-17T00:27:56.601Z,95812.13
2023-06-17T00:28:58.271Z,95818.53
2023-06-17T00:30:01.189Z,95814.09
2023-06-17T00:31:04.144Z,95816.34
2023-06-17T00:32:06.209Z,95819.09
2023-06-17T00:33:08.501Z,95810.81
2023-06-17T00:34:10.151Z,95816.41
2023-06-17T00:35:11.909Z,95815.72
2023-06-17T00:36:13.788Z,95816.69
2023-06-17T00:37:15.393Z,95807.91
2023-06-17T00:38:17.077Z,95821.84
2023-06-17T00:39:18.821Z,95816.69
2023-06-17T00:40:20.875Z,95810.72
2023-06-17T00:41:22.764Z,95814.38
2023-06-17T00:42:24.487Z,95808.06
2023-06-17T00:43:26.159Z,95809.16
2023-06-17T00:44:27.958Z,95815.81
2023-06-17T00:45:29.589Z,95807.91
2023-06-17T00:46:38.798Z,95808.88
2023-06-17T00:47:40.765Z,95814.53
2023-06-17T00:48:42.430Z,95813.75
2023-06-17T00:49:45.716Z,95814.41
2023-06-17T00:50:48.351Z,95804.75
2023-06-17T00:52:04.657Z,95816.56
2023-06-17T00:53:12.245Z,95803.00
2023-06-17T00:54:14.210Z,95810.03
2023-06-17T00:55:16.029Z,95805.72
2023-06-17T00:56:18.553Z,95803.28
2023-06-17T00:57:20.225Z,95796.09
2023-06-17T00:58:22.138Z,95799.97
2023-06-17T00:59:23.998Z,95807.44
2023-06-17T01:00:25.725Z,95812.38
2023-06-17T01:01:27.606Z,95802.84
2023-06-17T01:02:29.225Z,95803.09
2023-06-17T01:03:31.078Z,95805.41
2023-06-17T01:04:34.175Z,95804.16
2023-06-17T01:05:39.554Z,95817.00
2023-06-17T01:07:00.797Z,95813.38
2023-06-17T01:08:15.336Z,95814.31
2023-06-17T01:09:17.258Z,95816.28
2023-06-17T01:10:50.428Z,95811.66
2023-06-17T01:11:55.214Z,95810.03
2023-06-17T01:12:58.735Z,95810.75
2023-06-17T01:14:01.046Z,95813.69
2023-06-17T01:15:04.068Z,95810.50
2023-06-17T01:16:06.051Z,95806.28
2023-06-17T01:17:11.256Z,95812.16
2023-06-17T01:18:13.200Z,95810.50
2023-06-17T01:19:19.704Z,95816.19
2023-06-17T01:20:24.177Z,95808.16
2023-06-17T01:21:29.765Z,95815.72
2023-06-17T01:22:31.783Z,95814.72
2023-06-17T01:23:38.942Z,95812.00
2023-06-17T01:24:41.578Z,95809.50
2023-06-17T01:25:43.483Z,95813.69
2023-06-17T01:26:45.184Z,95807.03
2023-06-17T01:27:50.278Z,95813.78
2023-06-17T01:28:54.292Z,95804.97
2023-06-17T01:29:55.997Z,95808.38
2023-06-17T01:30:58.394Z,95816.41
2023-06-17T01:32:00.920Z,95809.69
2023-06-17T01:33:04.467Z,95809.25
2023-06-17T01:34:06.306Z,95811.38
2023-06-17T01:35:14.773Z,95813.56
2023-06-17T01:36:19.710Z,95809.06
2023-06-17T01:37:48.438Z,95819.19
2023-06-17T01:38:57.976Z,95814.75
2023-06-17T01:40:01.382Z,95806.84
2023-06-17T01:41:04.575Z,95817.66
2023-06-17T01:42:08.639Z,95813.84
2023-06-17T01:43:12.816Z,95812.13
2023-06-17T01:44:16.261Z,95812.19
2023-06-17T01:45:19.233Z,95811.69
2023-06-17T01:46:21.125Z,95816.09
2023-06-17T01:47:22.984Z,95813.16
2023-06-17T01:48:24.716Z,95812.06
2023-06-17T01:49:26.393Z,95814.66
2023-06-17T01:50:28.037Z,95805.59
2023-06-17T01:51:29.654Z,95803.31
2023-06-17T01:52:31.280Z,95810.53
2023-06-17T01:53:32.953Z,95805.31
2023-06-17T01:54:35.173Z,95811.44
2023-06-17T01:55:37.215Z,95804.88
2023-06-17T01:56:38.864Z,95807.66
2023-06-17T01:57:41.327Z,95810.00
2023-06-17T01:58:43.028Z,95808.88
2023-06-17T01:59:46.532Z,95806.31
2023-06-17T02:00:49.020Z,95805.00
2023-06-17T02:01:51.064Z,95810.03
2023-06-17T02:02:52.795Z,95806.47
2023-06-17T02:03:55.409Z,95805.16
2023-06-17T02:04:57.151Z,95801.19
2023-06-17T02:05:59.096Z,95810.59
2023-06-17T02:07:00.683Z,95814.16
2023-06-17T02:08:05.724Z,95815.47
2023-06-17T02:09:08.259Z,95814.03
2023-06-17T02:10:10.401Z,95809.41
2023-06-17T02:11:12.564Z,95809.97
2023-06-17T02:12:14.281Z,95811.38
2023-06-17T02:13:16.085Z,95812.88
2023-06-17T02:14:17.701Z,95809.22
2023-06-17T02:15:19.300Z,95816.53
2023-06-17T02:16:20.893Z,95806.47
2023-06-17T02:17:24.482Z,95810.69
2023-06-17T02:18:26.451Z,95814.56
2023-06-17T02:19:29.950Z,95808.25
2023-06-17T02:20:31.885Z,95803.91
2023-06-17T02:21:33.731Z,95807.44
2023-06-17T02:22:35.360Z,95809.81
2023-06-17T02:23:37.088Z,95810.69
2023-06-17T02:24:38.727Z,95811.19
2023-06-17T02:25:41.106Z,95813.75
2023-06-17T02:26:42.784Z,95810.13
2023-06-17T02:27:44.380Z,95812.13
2023-06-17T02:28:45.937Z,95810.66
2023-06-17T02:29:47.557Z,95799.22
2023-06-17T02:30:49.276Z,95810.00
2023-06-17T02:31:50.933Z,95805.53
2023-06-17T02:32:52.666Z,95802.13
2023-06-17T02:33:56.641Z,95807.56
2023-06-17T02:34:58.857Z,95801.75
2023-06-17T02:36:01.747Z,95807.59
2023-06-17T02:37:03.826Z,95800.28
2023-06-17T02:38:05.559Z,95807.63
2023-06-17T02:39:07.575Z,95812.34
2023-06-17T02:40:10.364Z,95815.19
2023-06-17T02:41:12.426Z,95812.63
2023-06-17T02:42:14.141Z,95814.91
2023-06-17T02:43:15.713Z,95807.38
2023-06-17T02:44:17.325Z,95808.88
2023-06-17T02:45:19.060Z,95810.66
2023-06-17T02:46:21.986Z,95808.13
2023-06-17T02:47:23.719Z,95806.66
2023-06-17T02:48:25.361Z,95809.03
2023-06-17T02:49:26.960Z,95800.97
2023-06-17T02:50:28.795Z,95801.16
2023-06-17T02:51:30.815Z,95806.75
2023-06-17T02:52:32.642Z,95803.13
2023-06-17T02:53:34.425Z,95802.50
2023-06-17T02:54:36.995Z,95808.53
2023-06-17T02:55:46.424Z,95805.31
2023-06-17T02:56:52.560Z,95808.44
2023-06-17T02:57:54.609Z,95808.34
2023-06-17T02:58:56.579Z,95807.31
2023-06-17T02:59:59.018Z,95810.41
2023-06-17T03:01:01.143Z,95810.47
2023-06-17T03:02:06.149Z,95813.69
2023-06-17T03:03:07.955Z,95811.41
2023-06-17T03:04:13.213Z,95806.47
2023-06-17T03:05:17.844Z,95813.50
2023-06-17T03:06:20.117Z,95805.91
2023-06-17T03:07:25.719Z,95812.75
2023-06-17T03:08:36.891Z,95809.22
2023-06-17T03:09:38.536Z,95810.59
2023-06-17T03:10:40.308Z,95813.34
2023-06-17T03:11:47.165Z,95814.50
2023-06-17T03:12:48.897Z,95814.94
2023-06-17T03:13:50.506Z,95815.34
2023-06-17T03:15:01.818Z,95813.34
2023-06-17T03:16:03.880Z,95813.84
2023-06-17T03:17:09.052Z,95807.19
2023-06-17T03:18:11.139Z,95810.59
2023-06-17T03:19:12.871Z,95808.88
2023-06-17T03:20:15.186Z,95811.56
2023-06-17T03:21:17.099Z,95816.19
2023-06-17T03:22:19.002Z,95814.44
2023-06-17T03:23:24.127Z,95807.84
2023-06-17T03:24:26.285Z,95808.94
2023-06-17T03:25:29.191Z,95814.50
2023-06-17T03:26:31.001Z,95815.25
2023-06-17T03:27:32.806Z,95812.91
2023-06-17T03:28:34.881Z,95809.22
2023-06-17T03:29:36.615Z,95809.97
2023-06-17T03:30:41.458Z,95806.91
2023-06-17T03:31:43.163Z,95808.31
2023-06-17T03:32:45.895Z,95805.84
2023-06-17T03:33:54.275Z,95812.16
2023-06-17T03:34:55.955Z,95811.69
2023-06-17T03:35:58.168Z,95816.69
2023-06-17T03:36:59.789Z,95816.84
2023-06-17T03:38:02.207Z,95817.81
2023-06-17T03:39:04.640Z,95813.44
2023-06-17T03:40:10.187Z,95809.75
2023-06-17T03:41:13.337Z,95817.16
2023-06-17T03:42:18.386Z,95815.31
2023-06-17T03:43:20.192Z,95808.50
2023-06-17T03:44:22.111Z,95815.34
2023-06-17T03:45:23.785Z,95822.25
2023-06-17T03:46:27.740Z,95814.22
2023-06-17T03:47:29.598Z,95811.50
2023-06-17T03:48:31.491Z,95816.09
2023-06-17T03:49:33.111Z,95815.81
2023-06-17T03:50:35.971Z,95819.97
2023-06-17T03:51:38.278Z,95815.41
2023-06-17T03:52:40.430Z,95818.56
2023-06-17T03:53:42.323Z,95817.94
2023-06-17T03:54:43.980Z,95819.09
2023-06-17T03:55:45.738Z,95815.84
2023-06-17T03:56:47.404Z,95819.75
2023-06-17T03:57:49.250Z,95817.06
2023-06-17T03:58:51.249Z,95820.88
2023-06-17T03:59:53.620Z,95820.31
2023-06-17T04:00:55.265Z,95826.22
2023-06-17T04:01:56.857Z,95816.94
2023-06-17T04:02:58.812Z,95818.38
2023-06-17T04:04:04.913Z,95819.66
2023-06-17T04:05:07.268Z,95822.91
2023-06-17T04:06:09.333Z,95821.19
2023-06-17T04:07:12.009Z,95815.53
2023-06-17T04:08:13.819Z,95819.28
2023-06-17T04:09:16.043Z,95814.38
2023-06-17T04:10:17.687Z,95823.06
2023-06-17T04:11:19.273Z,95814.47
2023-06-17T04:12:20.980Z,95819.97
2023-06-17T04:13:22.592Z,95824.78
2023-06-17T04:14:27.787Z,95822.91
2023-06-17T04:15:29.448Z,95827.19
2023-06-17T04:16:36.568Z,95818.56
2023-06-17T04:17:38.357Z,95825.94
2023-06-17T04:18:40.943Z,95822.56
2023-06-17T04:19:42.573Z,95823.94
2023-06-17T04:20:45.388Z,95824.41
2023-06-17T04:21:47.068Z,95825.94
2023-06-17T04:22:48.678Z,95824.94
2023-06-17T04:23:51.234Z,95821.38
2023-06-17T04:24:57.042Z,95829.03
2023-06-17T04:25:58.922Z,95827.03
2023-06-17T04:27:00.606Z,95832.75
2023-06-17T04:28:03.034Z,95829.56
2023-06-17T04:29:09.623Z,95827.88
2023-06-17T04:30:11.845Z,95826.38
2023-06-17T04:31:16.453Z,95828.47
2023-06-17T04:32:18.476Z,95823.00
2023-06-17T04:33:20.252Z,95824.03
2023-06-17T04:34:24.416Z,95825.47
2023-06-17T04:35:29.506Z,95828.53
2023-06-17T04:36:32.226Z,95819.84
2023-06-17T04:37:33.993Z,95833.53
2023-06-17T04:38:42.996Z,95831.41
2023-06-17T04:39:45.595Z,95831.78
2023-06-17T04:40:47.685Z,95834.75
2023-06-17T04:41:50.094Z,95829.59
2023-06-17T04:42:52.020Z,95823.16
2023-06-17T04:43:54.613Z,95824.91
2023-06-17T04:44:57.427Z,95827.66
2023-06-17T04:45:59.082Z,95825.09
2023-06-17T04:47:01.366Z,95822.31
2023-06-17T04:48:07.680Z,95824.97
2023-06-17T04:49:09.943Z,95825.31
2023-06-17T04:50:13.695Z,95826.28
2023-06-17T04:51:18.851Z,95832.44
2023-06-17T04:52:21.556Z,95829.94
2023-06-17T04:53:23.385Z,95834.19
2023-06-17T04:54:25.700Z,95825.91
2023-06-17T04:55:27.630Z,95830.69
2023-06-17T04:56:29.602Z,95828.09
2023-06-17T04:57:31.361Z,95833.38
2023-06-17T04:58:34.426Z,95832.16
2023-06-17T04:59:44.022Z,95833.31
2023-06-17T05:00:46.345Z,95830.91
2023-06-17T05:01:51.962Z,95824.91
2023-06-17T05:02:53.646Z,95823.69
2023-06-17T05:03:55.709Z,95816.50
2023-06-17T05:04:57.423Z,95824.88
2023-06-17T05:05:59.718Z,95822.63
2023-06-17T05:07:05.036Z,95823.84
2023-06-17T05:08:08.357Z,95821.44
2023-06-17T05:09:10.339Z,95816.63
2023-06-17T05:10:14.072Z,95815.75
2023-06-17T05:11:16.760Z,95819.88
2023-06-17T05:12:19.934Z,95823.44
2023-06-17T05:13:21.964Z,95819.44
2023-06-17T05:14:26.615Z,95817.88
2023-06-17T05:15:28.283Z,95821.03
2023-06-17T05:16:29.969Z,95819.50
2023-06-17T05:17:31.973Z,95826.13
2023-06-17T05:18:33.648Z,95827.66
2023-06-17T05:19:35.302Z,95828.09
2023-06-17T05:20:37.334Z,95819.50
2023-06-17T05:21:39.020Z,95824.13
2023-06-17T05:22:40.728Z,95832.66
2023-06-17T05:23:42.809Z,95825.72
2023-06-17T05:24:44.505Z,95823.63
2023-06-17T05:25:46.214Z,95831.06
2023-06-17T05:26:48.255Z,95825.50
2023-06-17T05:27:52.323Z,95826.69
2023-06-17T05:28:55.841Z,95824.94
2023-06-17T05:29:57.589Z,95826.69
2023-06-17T05:30:59.204Z,95840.63
2023-06-17T05:32:01.719Z,95838.38
2023-06-17T05:33:03.996Z,95831.34
2023-06-17T05:34:05.921Z,95825.25
2023-06-17T05:35:08.411Z,95828.19
2023-06-17T05:36:10.204Z,95836.56
2023-06-17T05:37:12.371Z,95835.69
2023-06-17T05:38:13.996Z,95834.28
2023-06-17T05:39:16.483Z,95830.16
2023-06-17T05:40:18.312Z,95837.81
2023-06-17T05:41:20.073Z,95836.06
2023-06-17T05:42:22.271Z,95839.69
2023-06-17T05:43:27.578Z,95835.47
2023-06-17T05:44:29.265Z,95823.41
2023-06-17T05:45:31.663Z,95827.72
2023-06-17T05:46:33.533Z,95831.63
2023-06-17T05:47:35.852Z,95822.00
2023-06-17T05:48:37.534Z,95829.75
2023-06-17T05:49:40.596Z,95828.34
2023-06-17T05:50:42.248Z,95829.63
2023-06-17T05:51:44.143Z,95831.91
2023-06-17T05:52:46.781Z,95826.78
2023-06-17T05:53:48.467Z,95836.81
2023-06-17T05:54:50.089Z,95828.00
2023-06-17T05:55:51.681Z,95835.69
2023-06-17T05:56:53.650Z,95826.84
2023-06-17T05:57:55.510Z,95833.44
2023-06-17T05:58:57.321Z,95832.53
2023-06-17T06:00:05.155Z,95836.97
2023-06-17T06:01:15.264Z,95833.16
2023-06-17T06:02:17.149Z,95835.88
2023-06-17T06:03:19.196Z,95839.00
2023-06-17T06:04:20.941Z,95831.72
2023-06-17T06:05:22.648Z,95835.06
2023-06-17T06:06:24.291Z,95835.41
2023-06-17T06:07:26.032Z,95834.34
2023-06-17T06:08:27.872Z,95834.59
2023-06-17T06:09:29.553Z,95837.97
2023-06-17T06:10:31.184Z,95832.00
2023-06-17T06:11:35.617Z,95836.16
2023-06-17T06:12:37.650Z,95831.31
2023-06-17T06:13:40.024Z,95834.72
2023-06-17T06:14:41.655Z,95838.38
2023-06-17T06:15:43.345Z,95836.06
2023-06-17T06:16:46.148Z,95836.94
2023-06-17T06:17:47.993Z,95834.28
2023-06-17T06:18:49.701Z,95834.25
2023-06-17T06:19:51.939Z,95841.72
2023-06-17T06:20:53.709Z,95836.81
2023-06-17T06:21:55.309Z,95839.22
2023-06-17T06:22:59.246Z,95842.97
2023-06-17T06:24:02.202Z,95837.47
2023-06-17T06:25:09.649Z,95841.72
2023-06-17T06:26:11.465Z,95842.50
2023-06-17T06:27:13.113Z,95842.44
2023-06-17T06:28:15.100Z,95839.53
2023-06-17T06:29:17.254Z,95840.19
2023-06-17T06:30:19.802Z,95840.09
2023-06-17T06:31:26.621Z,95837.88
2023-06-17T06:32:28.446Z,95841.06
2023-06-17T06:33:32.390Z,95848.22
2023-06-17T06:34:34.086Z,95845.34
2023-06-17T06:35:35.986Z,95850.16
2023-06-17T06:36:38.085Z,95845.19
2023-06-17T06:37:39.817Z,95844.88
2023-06-17T06:38:41.457Z,95853.66
2023-06-17T06:39:44.112Z,95845.72
2023-06-17T06:40:46.353Z,95850.91
2023-06-17T06:41:48.212Z,95858.81
2023-06-17T06:43:24.329Z,95853.16
2023-06-17T06:44:30.001Z,95840.78
2023-06-17T06:45:31.811Z,95848.19
2023-06-17T06:46:35.084Z,95853.19
2023-06-17T06:47:36.841Z,95849.47
2023-06-17T06:48:38.502Z,95847.31
2023-06-17T06:49:40.452Z,95845.88
2023-06-17T06:50:42.180Z,95850.34
2023-06-17T06:51:44.540Z,95856.72
2023-06-17T06:52:46.320Z,95847.34
2023-06-17T06:53:49.909Z,95856.31
2023-06-17T06:54:52.022Z,95850.75
2023-06-17T06:55:53.705Z,95852.00
2023-06-17T06:56:56.834Z,95851.41
2023-06-17T06:57:58.496Z,95854.91
2023-06-17T06:59:01.108Z,95850.59
2023-06-17T07:00:09.101Z,95854.09
2023-06-17T07:01:11.631Z,95864.81
2023-06-17T07:02:13.253Z,95851.38
2023-06-17T07:03:15.011Z,95856.38
2023-06-17T07:04:16.706Z,95850.44
2023-06-17T07:05:18.865Z,95859.22
2023-06-17T07:06:26.350Z,95851.75
2023-06-17T07:07:28.261Z,95858.53
2023-06-17T07:08:31.136Z,95856.50
2023-06-17T07:09:32.775Z,95850.75
2023-06-17T07:10:34.752Z,95858.75
2023-06-17T07:11:36.454Z,95857.53
2023-06-17T07:12:38.312Z,95855.22
2023-06-17T07:13:40.473Z,95862.81
2023-06-17T07:14:42.295Z,95860.09
2023-06-17T07:15:45.203Z,95857.44
2023-06-17T07:16:47.054Z,95861.88
2023-06-17T07:17:48.886Z,95856.28
2023-06-17T07:18:50.818Z,95860.13
2023-06-17T07:19:52.523Z,95862.63
2023-06-17T07:20:54.295Z,95855.69
2023-06-17T07:21:56.036Z,95857.31
2023-06-17T07:22:58.658Z,95862.00
2023-06-17T07:24:01.262Z,95864.81
2023-06-17T07:25:03.751Z,95862.78
2023-06-17T07:26:07.503Z,95866.47
2023-06-17T07:27:09.199Z,95866.25
2023-06-17T07:28:10.835Z,95872.00
2023-06-17T07:29:12.691Z,95862.22
2023-06-17T07:30:14.415Z,95862.94
2023-06-17T07:31:16.243Z,95864.81
2023-06-17T07:32:17.995Z,95865.13
2023-06-17T07:33:19.656Z,95871.72
2023-06-17T07:34:21.383Z,95864.63
2023-06-17T07:35:23.868Z,95853.22
2023-06-17T07:36:26.333Z,95859.13
2023-06-17T07:37:27.974Z,95856.09
2023-06-17T07:38:34.007Z,95856.78
2023-06-17T07:39:36.507Z,95854.53
2023-06-17T07:40:38.277Z,95858.59
2023-06-17T07:41:40.033Z,95844.38
2023-06-17T07:42:43.844Z,95851.66
2023-06-17T07:43:45.525Z,95850.91
2023-06-17T07:44:47.090Z,95858.50
2023-06-17T07:45:49.399Z,95851.78
2023-06-17T07:46:51.227Z,95855.91
2023-06-17T07:47:52.993Z,95862.50
2023-06-17T07:48:54.594Z,95854.78
2023-06-17T07:49:56.175Z,95852.50
2023-06-17T07:50:57.803Z,95848.28
2023-06-17T07:51:59.433Z,95854.16
2023-06-17T07:53:01.127Z,95847.75
2023-06-17T07:54:02.737Z,95854.41
2023-06-17T07:55:07.966Z,95854.41
2023-06-17T07:56:10.069Z,95853.13
2023-06-17T07:57:11.686Z,95852.88
2023-06-17T07:58:13.252Z,95841.63
2023-06-17T07:59:14.854Z,95846.78
2023-06-17T08:00:18.171Z,95849.25
2023-06-17T08:01:19.908Z,95847.47
2023-06-17T08:02:22.337Z,95850.06
2023-06-17T08:03:24.112Z,95845.78
2023-06-17T08:04:26.307Z,95845.56
2023-06-17T08:05:27.934Z,95846.84
2023-06-17T08:06:30.339Z,95845.41
2023-06-17T08:07:31.965Z,95848.09
2023-06-17T08:08:33.554Z,95843.47
2023-06-17T08:09:35.178Z,95838.59
2023-06-17T08:10:36.866Z,95840.34
2023-06-17T08:11:38.492Z,95834.91
2023-06-17T08:12:40.138Z,95836.75
2023-06-17T08:13:41.779Z,95841.28
2023-06-17T08:14:43.401Z,95842.97
2023-06-17T08:15:45.053Z,95840.22
2023-06-17T08:16:47.093Z,95839.31
2023-06-17T08:17:49.628Z,95840.91
2023-06-17T08:18:51.277Z,95836.16
2023-06-17T08:19:52.908Z,95831.69
2023-06-17T08:20:54.522Z,95847.53
2023-06-17T08:21:56.137Z,95842.94
2023-06-17T08:22:57.831Z,95839.25
2023-06-17T08:23:59.500Z,95835.47
2023-06-17T08:25:01.178Z,95831.22
2023-06-17T08:26:02.869Z,95832.84
2023-06-17T08:27:07.079Z,95839.28
2023-06-17T08:28:09.002Z,95835.16
2023-06-17T08:29:11.726Z,95832.53
2023-06-17T08:30:13.520Z,95835.84
2023-06-17T08:31:15.178Z,95833.47
2023-06-17T08:32:16.953Z,95823.38
2023-06-17T08:33:19.074Z,95835.06
2023-06-17T08:34:22.523Z,95840.06
2023-06-17T08:35:24.483Z,95835.31
2023-06-17T08:36:26.332Z,95837.09
2023-06-17T08:37:27.927Z,95827.06
2023-06-17T08:38:29.545Z,95826.53
2023-06-17T08:39:33.961Z,95832.16
2023-06-17T08:40:36.773Z,95831.31
2023-06-17T08:41:40.253Z,95826.78
2023-06-17T08:42:42.234Z,95827.22
2023-06-17T08:43:45.495Z,95826.56
2023-06-17T08:44:47.761Z,95831.16
2023-06-17T08:45:50.704Z,95826.03
2023-06-17T08:46:55.626Z,95821.66
2023-06-17T08:47:58.537Z,95830.38
2023-06-17T08:49:00.521Z,95831.50
2023-06-17T08:50:03.794Z,95822.66
2023-06-17T08:51:06.067Z,95820.44
2023-06-17T08:52:09.327Z,95820.59
2023-06-17T08:53:12.261Z,95827.09
2023-06-17T08:54:13.942Z,95825.03
2023-06-17T08:55:16.834Z,95822.94
2023-06-17T08:56:18.768Z,95819.66
2023-06-17T08:57:20.442Z,95823.47
2023-06-17T08:58:22.244Z,95822.34
2023-06-17T08:59:23.955Z,95822.25
2023-06-17T09:00:25.665Z,95822.81
2023-06-17T09:01:28.282Z,95822.81
2023-06-17T09:02:30.072Z,95824.91
2023-06-17T09:03:39.058Z,95825.25
2023-06-17T09:04:41.103Z,95821.38
2023-06-17T09:05:42.860Z,95822.66
2023-06-17T09:06:45.575Z,95828.94
2023-06-17T09:07:47.294Z,95818.97
2023-06-17T09:08:49.377Z,95820.81
2023-06-17T09:09:54.595Z,95816.28
2023-06-17T09:11:04.915Z,95824.56
2023-06-17T09:12:07.744Z,95819.31
2023-06-17T09:13:09.720Z,95814.78
2023-06-17T09:14:11.397Z,95822.69
2023-06-17T09:15:17.443Z,95823.28
2023-06-17T09:16:39.881Z,95811.88
2023-06-17T09:17:43.861Z,95819.06
2023-06-17T09:18:45.627Z,95816.66
2023-06-17T09:19:47.271Z,95812.31
2023-06-17T09:20:58.329Z,95807.59
2023-06-17T09:22:09.353Z,95804.66
2023-06-17T09:23:17.160Z,95811.91
2023-06-17T09:24:18.941Z,95807.53
2023-06-17T09:25:21.564Z,95810.59
2023-06-17T09:26:29.764Z,95815.59
2023-06-17T09:27:31.300Z,95810.50
2023-06-17T09:28:32.929Z,95802.13
2023-06-17T09:29:37.752Z,95799.41
2023-06-17T09:30:44.674Z,95803.16
2023-06-17T09:31:53.578Z,95807.50
2023-06-17T09:32:55.587Z,95800.13
2023-06-17T09:33:58.028Z,95803.91
2023-06-17T09:34:59.632Z,95803.28
2023-06-17T09:36:02.542Z,95805.56
2023-06-17T09:37:04.959Z,95803.03
2023-06-17T09:38:06.562Z,95801.63
2023-06-17T09:39:10.026Z,95807.47
2023-06-17T09:40:12.579Z,95800.03
2023-06-17T09:41:15.709Z,95799.09
2023-06-17T09:42:17.919Z,95801.38
2023-06-17T09:44:25.288Z,95799.66
2023-06-17T09:45:28.086Z,95795.03
2023-06-17T09:46:30.916Z,95799.75
2023-06-17T09:47:37.805Z,95797.31
2023-06-17T09:48:41.438Z,95789.81
2023-06-17T09:49:44.887Z,95796.75
2023-06-17T09:50:48.168Z,95794.25
2023-06-17T09:51:50.180Z,95797.44
2023-06-17T09:52:55.409Z,95802.56
2023-06-17T09:53:57.162Z,95810.81
2023-06-17T09:54:59.791Z,95798.72
2023-06-17T09:56:01.754Z,95797.72
2023-06-17T09:57:03.701Z,95802.69
2023-06-17T09:58:05.487Z,95796.72
2023-06-17T09:59:08.509Z,95793.66
2023-06-17T10:00:15.534Z,95797.28
2023-06-17T10:01:17.249Z,95792.72
2023-06-17T10:02:18.974Z,95794.94
2023-06-17T10:03:21.284Z,95788.06
2023-06-17T10:04:23.249Z,95788.50
2023-06-17T10:05:26.216Z,95782.38
2023-06-17T10:06:31.057Z,95793.09
2023-06-17T10:07:32.800Z,95787.31
2023-06-17T10:08:37.698Z,95782.16
2023-06-17T10:09:39.944Z,95780.97
2023-06-17T10:10:41.742Z,95784.88
2023-06-17T10:11:46.254Z,95780.03
2023-06-17T10:12:48.621Z,95777.34
2023-06-17T10:14:03.591Z,95782.72
2023-06-17T10:15:06.258Z,95772.69
2023-06-17T10:16:10.908Z,95768.00
2023-06-17T10:17:13.575Z,95771.75
2023-06-17T10:18:15.907Z,95765.72
2023-06-17T10:19:21.336Z,95771.09
2023-06-17T10:20:24.484Z,95767.09
2023-06-17T10:21:27.516Z,95772.75
2023-06-17T10:22:29.195Z,95769.50
2023-06-17T10:23:31.623Z,95770.81
2023-06-17T10:24:33.856Z,95766.75
2023-06-17T10:25:36.937Z,95768.41
2023-06-17T10:26:39.476Z,95763.38
2023-06-17T10:27:41.651Z,95767.50
2023-06-17T10:28:44.497Z,95769.38
2023-06-17T10:29:49.243Z,95767.91
2023-06-17T10:30:53.097Z,95764.66
2023-06-17T10:31:54.732Z,95758.44
2023-06-17T10:32:58.624Z,95771.88
2023-06-17T10:34:02.370Z,95762.34
2023-06-17T10:35:07.229Z,95763.34
2023-06-17T10:36:10.868Z,95759.72
2023-06-17T10:37:13.391Z,95751.75
2023-06-17T10:38:35.281Z,95764.25
2023-06-17T10:39:36.881Z,95758.16
2023-06-17T10:40:48.840Z,95761.59
2023-06-17T10:41:52.020Z,95760.28
2023-06-17T10:42:54.400Z,95755.91
2023-06-17T10:43:56.295Z,95759.41
2023-06-17T10:44:58.600Z,95759.22
2023-06-17T10:46:01.142Z,95756.38
2023-06-17T10:47:04.226Z,95758.81
2023-06-17T10:48:18.832Z,95749.72
2023-06-17T10:49:21.051Z,95755.56
2023-06-17T10:50:23.452Z,95753.28
2023-06-17T10:51:36.419Z,95754.81
2023-06-17T10:52:42.826Z,95749.78
2023-06-17T10:53:48.529Z,95750.28
2023-06-17T10:54:56.420Z,95754.38
2023-06-17T10:55:58.832Z,95753.19
2023-06-17T10:57:05.788Z,95753.03
2023-06-17T10:58:08.334Z,95746.22
2023-06-17T10:59:09.947Z,95740.91
2023-06-17T11:00:14.819Z,95748.19
2023-06-17T11:01:16.496Z,95745.31
2023-06-17T11:02:18.154Z,95740.34
2023-06-17T11:03:20.671Z,95741.91
2023-06-17T11:04:22.742Z,95746.06
2023-06-17T11:05:24.581Z,95739.41
2023-06-17T11:06:26.210Z,95736.75
2023-06-17T11:07:28.318Z,95736.34
2023-06-17T11:08:31.552Z,95737.22
2023-06-17T11:09:34.885Z,95742.84
2023-06-17T11:10:37.077Z,95734.81
2023-06-17T11:11:38.794Z,95745.88
2023-06-17T11:12:42.951Z,95742.97
2023-06-17T11:13:48.516Z,95736.88
2023-06-17T11:14:50.412Z,95734.97
2023-06-17T11:15:56.151Z,95732.00
2023-06-17T11:16:58.121Z,95731.44
2023-06-17T11:18:03.204Z,95723.78
2023-06-17T11:19:04.879Z,95722.53
2023-06-17T11:20:08.091Z,95728.09
2023-06-17T11:21:10.706Z,95732.22
2023-06-17T11:22:12.680Z,95724.28
2023-06-17T11:23:14.254Z,95732.66
2023-06-17T11:24:15.894Z,95735.28
2023-06-17T11:25:19.629Z,95736.84
2023-06-17T11:26:25.224Z,95736.66
2023-06-17T11:27:28.956Z,95730.22
2023-06-17T11:28:31.718Z,95727.25
2023-06-17T11:29:33.953Z,95727.66
2023-06-17T11:30:35.771Z,95723.34
2023-06-17T11:31:38.254Z,95723.66
2023-06-17T11:32:42.584Z,95712.13
2023-06-17T11:33:45.068Z,95719.84
2023-06-17T11:34:46.703Z,95724.16
2023-06-17T11:35:52.553Z,95720.25
2023-06-17T11:36:55.078Z,95722.69
2023-06-17T11:37:56.725Z,95716.03
2023-06-17T11:38:59.345Z,95713.59
2023-06-17T11:40:01.353Z,95702.53
2023-06-17T11:41:03.074Z,95713.72
2023-06-17T11:42:05.918Z,95707.41
2023-06-17T11:43:07.732Z,95711.88
2023-06-17T11:44:09.405Z,95708.50
2023-06-17T11:45:11.305Z,95701.19
2023-06-17T11:46:12.994Z,95701.38
2023-06-17T11:47:15.802Z,95707.66
2023-06-17T11:48:18.454Z,95706.38
2023-06-17T11:49:25.994Z,95702.16
2023-06-17T11:50:31.471Z,95703.41
2023-06-17T11:51:33.890Z,95689.06
2023-06-17T11:52:35.827Z,95695.00
2023-06-17T11:53:38.601Z,95698.22
2023-06-17T11:54:47.183Z,95694.56
2023-06-17T11:55:48.806Z,95691.84
2023-06-17T11:56:50.795Z,95688.44
2023-06-17T11:57:52.589Z,95693.09
2023-06-17T11:58:54.435Z,95690.03
2023-06-17T12:00:01.405Z,95696.22
2023-06-17T12:01:03.872Z,95685.66
2023-06-17T12:02:05.825Z,95699.44
2023-06-17T12:03:07.496Z,95699.94
2023-06-17T12:04:09.230Z,95691.66
2023-06-17T12:05:11.401Z,95690.91
2023-06-17T12:06:19.487Z,95692.41
2023-06-17T12:07:21.184Z,95695.34
2023-06-17T12:08:23.109Z,95692.22
2023-06-17T12:09:24.745Z,95681.00
2023-06-17T12:10:27.538Z,95689.41
2023-06-17T12:11:31.600Z,95687.72
2023-06-17T12:12:36.576Z,95684.78
2023-06-17T12:13:42.943Z,95690.09
2023-06-17T12:14:44.539Z,95685.59
2023-06-17T12:15:46.613Z,95686.84
2023-06-17T12:16:48.740Z,95681.25
2023-06-17T12:17:50.389Z,95678.47
2023-06-17T12:18:53.036Z,95677.91
2023-06-17T12:20:01.723Z,95681.88
2023-06-17T12:21:10.626Z,95680.00
2023-06-17T12:22:13.035Z,95678.63